createdAt,value
2023-07-21T00:00:00.224Z,0.00
2023-07-21T00:01:00.240Z,0.00
2023-07-21T00:02:00.183Z,0.00
2023-07-21T00:03:00.211Z,0.00
2023-07-21T00:04:00.213Z,0.00
2023-07-21T00:05:00.147Z,0.00
2023-07-21T00:06:00.131Z,0.00
2023-07-21T00:07:00.114Z,0.00
2023-07-21T00:08:00.064Z,0.00
2023-07-21T00:09:00.085Z,0.00
2023-07-21T00:10:00.101Z,0.00
2023-07-21T00:11:00.033Z,0.00
2023-07-21T00:12:00.006Z,0.00
2023-07-21T00:13:00.005Z,0.00
2023-07-21T00:13:59.998Z,0.00
2023-07-21T00:14:59.972Z,0.00
2023-07-21T00:15:59.983Z,0.00
2023-07-21T00:16:59.958Z,0.00
2023-07-21T00:17:59.982Z,0.00
2023-07-21T00:18:59.924Z,0.00
2023-07-21T00:19:59.899Z,0.00
2023-07-21T00:20:59.886Z,0.00
2023-07-21T00:21:59.917Z,0.00
2023-07-21T00:22:59.873Z,0.00
2023-07-21T00:23:59.846Z,0.00
2023-07-21T00:24:59.829Z,0.00
2023-07-21T00:25:59.841Z,0.00
2023-07-21T00:26:59.800Z,0.00
2023-07-21T00:27:59.860Z,0.00
2023-07-21T00:28:59.786Z,0.00
2023-07-21T00:29:59.773Z,0.00
2023-07-21T00:30:59.898Z,0.00
2023-07-21T00:31:59.769Z,0.00
2023-07-21T00:32:59.810Z,0.00
2023-07-21T00:33:59.731Z,0.00
2023-07-21T00:34:59.698Z,0.00
2023-07-21T00:35:59.682Z,0.00
2023-07-21T00:36:59.706Z,0.00
2023-07-21T00:37:59.658Z,0.00
2023-07-21T00:38:59.688Z,0.00
2023-07-21T00:39:59.656Z,0.00
2023-07-21T00:40:59.617Z,0.00
2023-07-21T00:41:59.601Z,0.00
2023-07-21T00:42:59.590Z,0.00
2023-07-21T00:43:59.608Z,0.00
2023-07-21T00:44:59.596Z,0.00
2023-07-21T00:45:59.589Z,0.00
2023-07-21T00:46:59.590Z,0.00
2023-07-21T00:47:59.589Z,0.00
2023-07-21T00:48:59.520Z,0.00
2023-07-21T00:49:59.518Z,0.00
2023-07-21T00:50:59.494Z,0.00
2023-07-21T00:51:59.489Z,0.00
2023-07-21T00:52:59.451Z,0.00
2023-07-21T00:53:59.476Z,0.00
2023-07-21T00:54:59.437Z,0.00
2023-07-21T00:55:59.436Z,0.00
2023-07-21T00:56:59.429Z,0.00
2023-07-21T00:57:59.411Z,0.00
2023-07-21T00:58:59.385Z,0.00
2023-07-21T00:59:59.373Z,0.00
2023-07-21T01:00:59.375Z,0.00
2023-07-21T01:01:59.394Z,0.00
2023-07-21T01:02:59.507Z,0.00
2023-07-21T01:03:59.327Z,0.00
2023-07-21T01:04:59.331Z,0.00
2023-07-21T01:05:59.291Z,0.00
2023-07-21T01:06:59.266Z,0.00
2023-07-21T01:07:59.296Z,0.00
2023-07-21T01:08:59.241Z,0.00
2023-07-21T01:09:59.236Z,0.00
2023-07-21T01:10:59.243Z,0.00
2023-07-21T01:11:59.221Z,0.00
2023-07-21T01:12:59.222Z,0.00
2023-07-21T01:13:59.202Z,0.00
2023-07-21T01:14:59.173Z,0.00
2023-07-21T01:15:59.176Z,0.00
2023-07-21T01:16:59.167Z,0.00
2023-07-21T01:17:59.251Z,0.00
2023-07-21T01:18:59.133Z,0.00
2023-07-21T01:19:59.131Z,0.00
2023-07-21T01:20:59.088Z,0.00
2023-07-21T01:21:59.107Z,0.00
2023-07-21T01:22:59.089Z,0.00
2023-07-21T01:23:59.102Z,0.00
2023-07-21T01:24:59.037Z,0.00
2023-07-21T01:25:59.036Z,0.00
2023-07-21T01:26:59.032Z,0.00
2023-07-21T01:27:59.043Z,0.00
2023-07-21T01:28:59.057Z,0.00
2023-07-21T01:29:59.019Z,0.00
2023-07-21T01:30:58.998Z,0.00
2023-07-21T01:31:58.979Z,0.00
2023-07-21T01:32:59.027Z,0.00
2023-07-21T01:33:58.937Z,0.00
2023-07-21T01:34:58.932Z,0.00
2023-07-21T01:35:58.902Z,0.00
2023-07-21T01:36:58.884Z,0.00
2023-07-21T01:37:58.891Z,0.00
2023-07-21T01:38:58.893Z,0.00
2023-07-21T01:39:58.861Z,0.00
2023-07-21T01:40:58.851Z,0.00
2023-07-21T01:41:58.839Z,0.00
2023-07-21T01:42:58.829Z,0.00
2023-07-21T01:43:58.852Z,0.00
2023-07-21T01:44:58.805Z,0.00
2023-07-21T01:45:58.795Z,0.00
2023-07-21T01:46:58.842Z,0.00
2023-07-21T01:47:58.784Z,0.00
2023-07-21T01:48:58.728Z,0.00
2023-07-21T01:49:58.760Z,0.00
2023-07-21T01:50:58.710Z,0.00
2023-07-21T01:51:58.707Z,0.00
2023-07-21T01:52:58.674Z,0.00
2023-07-21T01:53:58.684Z,0.00
2023-07-21T01:54:58.647Z,0.00
2023-07-21T01:55:58.662Z,0.00
2023-07-21T01:56:58.641Z,0.00
2023-07-21T01:57:58.635Z,0.00
2023-07-21T01:58:58.616Z,0.00
2023-07-21T01:59:58.624Z,0.00
2023-07-21T02:00:58.638Z,0.00
2023-07-21T02:01:58.615Z,0.00
2023-07-21T02:02:58.591Z,0.00
2023-07-21T02:03:58.572Z,0.00
2023-07-21T02:04:58.548Z,0.00
2023-07-21T02:05:58.534Z,0.00
2023-07-21T02:06:58.505Z,0.00
2023-07-21T02:07:58.498Z,0.00
2023-07-21T02:08:58.475Z,0.00
2023-07-21T02:09:58.471Z,0.00
2023-07-21T02:10:58.443Z,0.00
2023-07-21T02:11:58.445Z,0.00
2023-07-21T02:12:58.423Z,0.00
2023-07-21T02:13:58.401Z,0.00
2023-07-21T02:14:58.396Z,0.00
2023-07-21T02:15:58.424Z,0.00
2023-07-21T02:16:58.497Z,0.00
2023-07-21T02:17:58.477Z,0.00
2023-07-21T02:18:58.358Z,0.00
2023-07-21T02:19:58.342Z,0.00
2023-07-21T02:20:58.345Z,0.00
2023-07-21T02:21:58.307Z,0.00
2023-07-21T02:22:58.275Z,0.00
2023-07-21T02:23:58.333Z,0.00
2023-07-21T02:24:58.317Z,0.00
2023-07-21T02:25:58.258Z,0.00
2023-07-21T02:26:58.258Z,0.00
2023-07-21T02:27:58.217Z,4.00
2023-07-21T02:28:58.249Z,4.00
2023-07-21T02:29:58.217Z,4.00
2023-07-21T02:30:58.190Z,0.00
2023-07-21T02:31:58.238Z,0.00
2023-07-21T02:32:58.175Z,4.00
2023-07-21T02:33:58.162Z,4.00
2023-07-21T02:34:58.150Z,4.00
2023-07-21T02:35:58.124Z,4.00
2023-07-21T02:36:58.091Z,4.00
2023-07-21T02:37:58.112Z,8.00
2023-07-21T02:38:58.090Z,4.00
2023-07-21T02:39:58.074Z,8.00
2023-07-21T02:40:58.060Z,4.00
2023-07-21T02:41:58.048Z,8.00
2023-07-21T02:42:58.031Z,8.00
2023-07-21T02:43:58.025Z,8.00
2023-07-21T02:44:58.032Z,12.00
2023-07-21T02:45:58.070Z,12.00
2023-07-21T02:46:57.986Z,12.00
2023-07-21T02:47:58.014Z,16.00
2023-07-21T02:48:57.966Z,20.00
2023-07-21T02:49:57.938Z,20.00
2023-07-21T02:50:57.999Z,24.00
2023-07-21T02:51:57.919Z,24.00
2023-07-21T02:52:57.896Z,28.00
2023-07-21T02:53:57.884Z,32.00
2023-07-21T02:54:57.866Z,36.00
2023-07-21T02:55:57.866Z,40.00
2023-07-21T02:56:57.846Z,44.00
2023-07-21T02:57:57.834Z,48.00
2023-07-21T02:58:57.834Z,56.00
2023-07-21T02:59:57.809Z,60.00
2023-07-21T03:00:57.798Z,68.00
2023-07-21T03:01:57.892Z,72.00
2023-07-21T03:02:57.821Z,80.00
2023-07-21T03:04:03.882Z,84.00
2023-07-21T03:04:57.808Z,96.00
2023-07-21T03:05:57.737Z,100.00
2023-07-21T03:06:57.707Z,112.00
2023-07-21T03:07:57.793Z,120.00
2023-07-21T03:08:57.675Z,132.00
2023-07-21T03:09:57.666Z,140.00
2023-07-21T03:10:57.662Z,152.00
2023-07-21T03:11:57.929Z,164.00
2023-07-21T03:12:57.617Z,176.00
2023-07-21T03:13:57.626Z,188.00
2023-07-21T03:14:57.616Z,200.00
2023-07-21T03:16:00.479Z,212.00
2023-07-21T03:16:57.577Z,232.00
2023-07-21T03:18:03.627Z,248.00
2023-07-21T03:18:57.556Z,264.00
2023-07-21T03:19:57.551Z,276.00
2023-07-21T03:20:57.619Z,300.00
2023-07-21T03:21:57.555Z,316.00
2023-07-21T03:22:57.556Z,336.00
2023-07-21T03:23:57.640Z,356.00
2023-07-21T03:24:57.609Z,376.00
2023-07-21T03:25:57.553Z,396.00
2023-07-21T03:26:57.490Z,420.00
2023-07-21T03:27:57.459Z,444.00
2023-07-21T03:28:57.431Z,464.00
2023-07-21T03:29:57.404Z,492.00
2023-07-21T03:30:57.404Z,516.00
2023-07-21T03:31:57.409Z,540.00
2023-07-21T03:32:57.416Z,564.00
2023-07-21T03:33:57.370Z,588.00
2023-07-21T03:34:57.346Z,616.00
2023-07-21T03:35:57.371Z,644.00
2023-07-21T03:36:57.322Z,668.00
2023-07-21T03:37:57.311Z,696.00
2023-07-21T03:38:57.309Z,724.00
2023-07-21T03:39:57.303Z,748.00
2023-07-21T03:40:57.260Z,776.00
2023-07-21T03:41:57.257Z,804.00
2023-07-21T03:42:57.272Z,832.00
2023-07-21T03:43:57.219Z,860.00
2023-07-21T03:44:57.218Z,888.00
2023-07-21T03:45:57.227Z,912.00
2023-07-21T03:46:57.241Z,944.00
2023-07-21T03:47:57.183Z,972.00
2023-07-21T03:48:57.197Z,996.00
2023-07-21T03:49:57.152Z,1024.00
2023-07-21T03:50:57.156Z,1052.00
2023-07-21T03:51:57.147Z,1076.00
2023-07-21T03:52:57.115Z,1104.00
2023-07-21T03:53:57.086Z,1132.00
2023-07-21T03:54:57.111Z,1160.00
2023-07-21T03:55:57.080Z,1180.00
2023-07-21T03:56:57.066Z,1208.00
2023-07-21T03:57:57.056Z,1236.00
2023-07-21T03:58:58.811Z,1264.00
2023-07-21T03:59:57.006Z,1288.00
2023-07-21T04:00:57.039Z,1312.00
2023-07-21T04:01:56.990Z,1340.00
2023-07-21T04:02:57.003Z,1368.00
2023-07-21T04:03:57.046Z,1392.00
2023-07-21T04:04:56.957Z,1420.00
2023-07-21T04:05:56.938Z,1448.00
2023-07-21T04:06:56.960Z,1476.00
2023-07-21T04:07:56.920Z,1504.00
2023-07-21T04:08:56.885Z,1532.00
2023-07-21T04:09:56.883Z,1556.00
2023-07-21T04:10:56.862Z,1584.00
2023-07-21T04:11:56.858Z,1604.00
2023-07-21T04:12:56.839Z,1632.00
2023-07-21T04:13:56.827Z,1656.00
2023-07-21T04:14:56.806Z,1684.00
2023-07-21T04:15:56.826Z,1708.00
2023-07-21T04:16:56.807Z,1732.00
2023-07-21T04:17:56.793Z,1752.00
2023-07-21T04:18:56.784Z,1772.00
2023-07-21T04:19:56.752Z,1800.00
2023-07-21T04:20:56.740Z,1820.00
2023-07-21T04:21:56.747Z,1840.00
2023-07-21T04:22:56.699Z,1864.00
2023-07-21T04:23:56.689Z,1888.00
2023-07-21T04:24:56.692Z,1908.00
2023-07-21T04:25:56.677Z,1928.00
2023-07-21T04:26:56.657Z,1952.00
2023-07-21T04:27:56.639Z,1972.00
2023-07-21T04:28:56.622Z,1992.00
2023-07-21T04:29:56.626Z,2012.00
2023-07-21T04:30:56.613Z,2028.00
2023-07-21T04:31:56.594Z,2048.00
2023-07-21T04:32:56.642Z,2068.00
2023-07-21T04:33:56.583Z,2084.00
2023-07-21T04:34:56.560Z,2100.00
2023-07-21T04:35:56.542Z,2116.00
2023-07-21T04:36:56.520Z,2132.00
2023-07-21T04:37:56.512Z,2148.00
2023-07-21T04:38:56.507Z,2164.00
2023-07-21T04:39:56.489Z,2184.00
2023-07-21T04:40:56.465Z,2196.00
2023-07-21T04:41:56.459Z,2216.00
2023-07-21T04:42:56.463Z,2240.00
2023-07-21T04:43:59.512Z,2264.00
2023-07-21T04:44:56.407Z,2300.00
2023-07-21T04:45:56.432Z,2336.00
2023-07-21T04:46:56.406Z,2384.00
2023-07-21T04:47:56.415Z,2432.00
2023-07-21T04:48:56.379Z,2492.00
2023-07-21T04:49:56.368Z,2544.00
2023-07-21T04:50:56.333Z,2604.00
2023-07-21T04:51:56.339Z,2660.00
2023-07-21T04:52:56.337Z,2736.00
2023-07-21T04:53:56.293Z,2808.00
2023-07-21T04:54:56.314Z,2876.00
2023-07-21T04:55:56.274Z,2936.00
2023-07-21T04:56:56.261Z,2964.00
2023-07-21T04:57:56.265Z,2964.00
2023-07-21T04:58:56.249Z,2920.00
2023-07-21T04:59:56.232Z,2900.00
2023-07-21T05:00:56.268Z,2920.00
2023-07-21T05:01:56.189Z,3004.00
2023-07-21T05:02:56.284Z,3140.00
2023-07-21T05:03:56.210Z,3264.00
2023-07-21T05:04:56.182Z,3388.00
2023-07-21T05:05:56.144Z,3496.00
2023-07-21T05:06:56.155Z,3556.00
2023-07-21T05:07:56.131Z,3604.00
2023-07-21T05:08:56.146Z,3640.00
2023-07-21T05:09:56.088Z,3676.00
2023-07-21T05:10:56.132Z,3700.00
2023-07-21T05:11:56.106Z,3708.00
2023-07-21T05:12:56.086Z,3684.00
2023-07-21T05:13:56.059Z,3640.00
2023-07-21T05:14:56.047Z,3668.00
2023-07-21T05:15:56.011Z,3656.00
2023-07-21T05:16:56.042Z,3620.00
2023-07-21T05:17:56.028Z,3600.00
2023-07-21T05:18:55.981Z,3356.00
2023-07-21T05:19:55.950Z,3332.00
2023-07-21T05:20:55.954Z,3376.00
2023-07-21T05:21:56.002Z,3320.00
2023-07-21T05:22:55.918Z,3152.00
2023-07-21T05:23:55.905Z,3112.00
2023-07-21T05:24:55.887Z,3020.00
2023-07-21T05:25:55.885Z,2976.00
2023-07-21T05:26:55.875Z,2944.00
2023-07-21T05:27:55.843Z,2956.00
2023-07-21T05:28:55.852Z,2948.00
2023-07-21T05:29:55.818Z,2964.00
2023-07-21T05:30:55.886Z,2944.00
2023-07-21T05:31:55.804Z,2904.00
2023-07-21T05:32:55.844Z,2860.00
2023-07-21T05:33:55.798Z,2772.00
2023-07-21T05:34:55.758Z,2672.00
2023-07-21T05:35:55.768Z,2604.00
2023-07-21T05:36:55.750Z,2576.00
2023-07-21T05:37:55.713Z,2544.00
2023-07-21T05:38:55.727Z,2520.00
2023-07-21T05:39:55.711Z,2528.00
2023-07-21T05:40:55.688Z,2548.00
2023-07-21T05:41:55.678Z,2556.00
2023-07-21T05:42:55.690Z,2524.00
2023-07-21T05:43:55.684Z,2412.00
2023-07-21T05:44:55.707Z,2316.00
2023-07-21T05:45:55.627Z,2252.00
2023-07-21T05:46:55.709Z,2244.00
2023-07-21T05:47:55.715Z,2256.00
2023-07-21T05:48:55.596Z,2276.00
2023-07-21T05:49:55.569Z,2324.00
2023-07-21T05:50:55.552Z,2408.00
2023-07-21T05:51:55.544Z,2536.00
2023-07-21T05:52:55.529Z,2708.00
2023-07-21T05:53:55.585Z,2932.00
2023-07-21T05:54:55.522Z,3180.00
2023-07-21T05:55:55.484Z,3396.00
2023-07-21T05:56:55.463Z,3572.00
2023-07-21T05:57:55.454Z,3692.00
2023-07-21T05:58:55.467Z,3632.00
2023-07-21T05:59:55.438Z,3452.00
2023-07-21T06:00:55.456Z,3164.00
2023-07-21T06:01:55.526Z,2908.00
2023-07-21T06:02:55.512Z,2720.00
2023-07-21T06:03:55.421Z,2636.00
2023-07-21T06:04:55.377Z,2684.00
2023-07-21T06:05:55.343Z,2820.00
2023-07-21T06:06:55.329Z,3032.00
2023-07-21T06:07:55.329Z,3264.00
2023-07-21T06:08:55.309Z,3436.00
2023-07-21T06:09:55.331Z,3592.00
2023-07-21T06:10:55.294Z,3708.00
2023-07-21T06:11:55.258Z,3752.00
2023-07-21T06:12:56.713Z,3700.00
2023-07-21T06:13:55.239Z,3576.00
2023-07-21T06:14:55.225Z,3380.00
2023-07-21T06:15:55.248Z,3032.00
2023-07-21T06:16:55.219Z,2848.00
2023-07-21T06:17:55.254Z,2860.00
2023-07-21T06:18:55.195Z,2972.00
2023-07-21T06:19:55.952Z,3080.00
2023-07-21T06:20:55.164Z,3160.00
2023-07-21T06:21:55.157Z,3420.00
2023-07-21T06:22:55.131Z,3796.00
2023-07-21T06:23:55.108Z,4104.00
2023-07-21T06:24:55.094Z,4260.00
2023-07-21T06:25:55.121Z,4448.00
2023-07-21T06:26:55.096Z,4540.00
2023-07-21T06:27:55.056Z,4600.00
2023-07-21T06:28:55.060Z,4664.00
2023-07-21T06:29:55.030Z,4604.00
2023-07-21T06:30:55.033Z,4276.00
2023-07-21T06:31:55.039Z,3844.00
2023-07-21T06:32:55.108Z,3336.00
2023-07-21T06:33:54.976Z,3012.00
2023-07-21T06:34:54.984Z,2832.00
2023-07-21T06:35:54.966Z,2744.00
2023-07-21T06:36:54.969Z,2664.00
2023-07-21T06:37:54.944Z,2552.00
2023-07-21T06:38:54.921Z,2520.00
2023-07-21T06:39:54.922Z,2600.00
2023-07-21T06:40:54.910Z,2724.00
2023-07-21T06:41:54.890Z,2860.00
2023-07-21T06:42:54.899Z,3024.00
2023-07-21T06:43:54.871Z,3200.00
2023-07-21T06:44:54.843Z,3384.00
2023-07-21T06:45:54.848Z,3556.00
2023-07-21T06:46:54.873Z,3736.00
2023-07-21T06:47:54.859Z,3924.00
2023-07-21T06:48:54.801Z,4124.00
2023-07-21T06:49:54.775Z,4268.00
2023-07-21T06:50:54.787Z,4160.00
2023-07-21T06:51:54.763Z,4020.00
2023-07-21T06:52:54.778Z,3892.00
2023-07-21T06:53:54.750Z,3744.00
2023-07-21T06:54:54.752Z,3556.00
2023-07-21T06:55:54.722Z,3380.00
2023-07-21T06:56:54.687Z,3228.00
2023-07-21T06:57:54.697Z,3160.00
2023-07-21T06:58:54.669Z,3164.00
2023-07-21T06:59:54.632Z,3260.00
2023-07-21T07:00:54.770Z,3368.00
2023-07-21T07:01:54.712Z,3536.00
2023-07-21T07:02:54.663Z,3664.00
2023-07-21T07:03:54.661Z,3652.00
2023-07-21T07:04:54.652Z,3580.00
2023-07-21T07:05:54.565Z,3584.00
2023-07-21T07:06:54.546Z,3604.00
2023-07-21T07:07:54.573Z,3724.00
2023-07-21T07:08:54.571Z,3888.00
2023-07-21T07:09:54.500Z,4080.00
2023-07-21T07:10:54.506Z,4280.00
2023-07-21T07:11:54.491Z,4412.00
2023-07-21T07:12:54.472Z,4484.00
2023-07-21T07:13:54.460Z,4552.00
2023-07-21T07:14:54.450Z,4620.00
2023-07-21T07:15:54.491Z,4616.00
2023-07-21T07:16:54.482Z,4616.00
2023-07-21T07:17:54.475Z,4512.00
2023-07-21T07:18:54.387Z,4436.00
2023-07-21T07:19:54.392Z,4368.00
2023-07-21T07:20:54.437Z,4220.00
2023-07-21T07:21:54.366Z,4076.00
2023-07-21T07:22:54.355Z,3940.00
2023-07-21T07:23:54.378Z,3816.00
2023-07-21T07:24:54.344Z,3760.00
2023-07-21T07:25:54.373Z,3612.00
2023-07-21T07:26:54.296Z,3396.00
2023-07-21T07:27:54.276Z,3164.00
2023-07-21T07:28:54.270Z,3020.00
2023-07-21T07:29:54.257Z,2972.00
2023-07-21T07:30:54.259Z,2976.00
2023-07-21T07:31:54.219Z,2976.00
2023-07-21T07:32:54.252Z,2896.00
2023-07-21T07:33:54.178Z,2792.00
2023-07-21T07:34:54.192Z,2712.00
2023-07-21T07:35:54.592Z,2708.00
2023-07-21T07:36:54.157Z,2748.00
2023-07-21T07:37:54.125Z,2800.00
2023-07-21T07:38:54.138Z,2888.00
2023-07-21T07:39:54.127Z,3024.00
2023-07-21T07:40:54.085Z,3204.00
2023-07-21T07:41:54.109Z,3420.00
2023-07-21T07:42:54.076Z,3716.00
2023-07-21T07:43:54.052Z,4128.00
2023-07-21T07:44:54.031Z,4628.00
2023-07-21T07:45:54.071Z,5148.00
2023-07-21T07:46:54.025Z,5720.00
2023-07-21T07:47:54.025Z,6096.00
2023-07-21T07:48:56.270Z,6264.00
2023-07-21T07:49:53.978Z,6356.00
2023-07-21T07:50:54.065Z,6372.00
2023-07-21T07:51:53.935Z,6336.00
2023-07-21T07:52:53.940Z,6308.00
2023-07-21T07:53:53.937Z,6356.00
2023-07-21T07:54:53.912Z,6504.00
2023-07-21T07:55:53.903Z,6708.00
2023-07-21T07:56:53.889Z,7000.00
2023-07-21T07:57:53.886Z,7300.00
2023-07-21T07:58:53.859Z,7524.00
2023-07-21T07:59:53.914Z,7776.00
2023-07-21T08:00:53.831Z,7884.00
2023-07-21T08:01:53.863Z,8048.00
2023-07-21T08:02:53.999Z,8144.00
2023-07-21T08:03:53.814Z,8232.00
2023-07-21T08:04:53.815Z,8228.00
2023-07-21T08:05:53.780Z,8196.00
2023-07-21T08:06:53.759Z,8160.00
2023-07-21T08:07:53.760Z,8176.00
2023-07-21T08:08:53.723Z,8108.00
2023-07-21T08:09:53.711Z,7892.00
2023-07-21T08:10:53.742Z,7820.00
2023-07-21T08:11:53.679Z,7804.00
2023-07-21T08:12:53.679Z,7732.00
2023-07-21T08:13:53.678Z,7868.00
2023-07-21T08:14:53.646Z,7980.00
2023-07-21T08:15:53.682Z,8096.00
2023-07-21T08:16:53.705Z,8208.00
2023-07-21T08:17:53.674Z,7932.00
2023-07-21T08:18:53.586Z,7584.00
2023-07-21T08:19:53.643Z,7116.00
2023-07-21T08:20:53.555Z,6428.00
2023-07-21T08:21:53.561Z,5740.00
2023-07-21T08:22:53.551Z,5212.00
2023-07-21T08:23:53.540Z,5004.00
2023-07-21T08:24:53.545Z,5056.00
2023-07-21T08:25:53.508Z,5236.00
2023-07-21T08:26:53.472Z,5452.00
2023-07-21T08:27:54.323Z,5624.00
2023-07-21T08:28:53.454Z,5792.00
2023-07-21T08:29:53.438Z,5984.00
2023-07-21T08:30:58.372Z,6292.00
2023-07-21T08:31:53.456Z,6712.00
2023-07-21T08:32:53.404Z,7096.00
2023-07-21T08:33:53.391Z,7516.00
2023-07-21T08:34:53.377Z,7876.00
2023-07-21T08:35:53.363Z,8440.00
2023-07-21T08:36:54.917Z,8924.00
2023-07-21T08:37:53.329Z,9444.00
2023-07-21T08:38:53.336Z,9940.00
2023-07-21T08:39:53.316Z,10048.00
2023-07-21T08:40:53.315Z,9900.00
2023-07-21T08:41:53.306Z,10084.00
2023-07-21T08:42:53.258Z,9872.00
2023-07-21T08:43:53.272Z,9624.00
2023-07-21T08:44:53.229Z,9872.00
2023-07-21T08:45:53.335Z,9892.00
2023-07-21T08:46:53.256Z,10060.00
2023-07-21T08:47:53.210Z,10176.00
2023-07-21T08:48:53.209Z,10060.00
2023-07-21T08:49:53.193Z,10048.00
2023-07-21T08:50:53.170Z,10080.00
2023-07-21T08:51:53.157Z,10132.00
2023-07-21T08:52:53.147Z,10084.00
2023-07-21T08:53:53.136Z,9936.00
2023-07-21T08:54:53.102Z,9620.00
2023-07-21T08:55:53.096Z,9168.00
2023-07-21T08:56:53.155Z,8688.00
2023-07-21T08:57:53.087Z,8212.00
2023-07-21T08:58:53.064Z,7820.00
2023-07-21T08:59:53.060Z,7580.00
2023-07-21T09:00:53.069Z,7364.00
2023-07-21T09:01:53.044Z,7132.00
2023-07-21T09:02:53.071Z,6976.00
2023-07-21T09:03:53.109Z,6900.00
2023-07-21T09:04:53.054Z,6688.00
2023-07-21T09:05:52.968Z,6280.00
2023-07-21T09:06:52.984Z,5836.00
2023-07-21T09:07:52.961Z,5424.00
2023-07-21T09:08:52.948Z,5144.00
2023-07-21T09:09:52.941Z,5016.00
2023-07-21T09:10:52.910Z,4944.00
2023-07-21T09:11:52.890Z,4920.00
2023-07-21T09:12:52.886Z,4932.00
2023-07-21T09:13:52.892Z,4952.00
2023-07-21T09:14:52.865Z,4988.00
2023-07-21T09:15:52.907Z,5080.00
2023-07-21T09:16:52.868Z,5296.00
2023-07-21T09:17:52.826Z,5652.00
2023-07-21T09:18:58.826Z,5988.00
2023-07-21T09:19:52.823Z,6108.00
2023-07-21T09:20:52.790Z,5988.00
2023-07-21T09:21:52.791Z,5696.00
2023-07-21T09:22:52.750Z,5320.00
2023-07-21T09:23:52.967Z,5048.00
2023-07-21T09:24:52.942Z,4976.00
2023-07-21T09:25:52.753Z,5116.00
2023-07-21T09:26:52.700Z,5488.00
2023-07-21T09:27:52.730Z,5924.00
2023-07-21T09:28:52.694Z,6352.00
2023-07-21T09:29:52.689Z,6876.00
2023-07-21T09:30:52.748Z,7388.00
2023-07-21T09:31:52.727Z,7764.00
2023-07-21T09:32:52.736Z,8172.00
2023-07-21T09:33:52.609Z,8436.00
2023-07-21T09:34:52.618Z,8720.00
2023-07-21T09:35:52.607Z,8952.00
2023-07-21T09:36:52.604Z,9224.00
2023-07-21T09:37:52.673Z,9644.00
2023-07-21T09:38:52.546Z,10028.00
2023-07-21T09:39:52.569Z,10220.00
2023-07-21T09:40:52.563Z,10272.00
2023-07-21T09:41:52.544Z,10308.00
2023-07-21T09:42:52.518Z,10324.00
2023-07-21T09:43:52.497Z,10292.00
2023-07-21T09:44:52.473Z,10252.00
2023-07-21T09:45:52.492Z,10216.00
2023-07-21T09:46:52.488Z,10260.00
2023-07-21T09:47:52.502Z,10356.00
2023-07-21T09:48:52.426Z,10504.00
2023-07-21T09:49:52.467Z,10664.00
2023-07-21T09:50:52.415Z,10808.00
2023-07-21T09:51:52.414Z,10928.00
2023-07-21T09:52:52.373Z,11044.00
2023-07-21T09:53:52.379Z,11060.00
2023-07-21T09:54:52.352Z,11072.00
2023-07-21T09:55:52.575Z,11196.00
2023-07-21T09:56:52.334Z,11248.00
2023-07-21T09:57:52.319Z,11328.00
2023-07-21T09:58:52.309Z,11380.00
2023-07-21T09:59:52.308Z,11316.00
2023-07-21T10:00:52.353Z,11200.00
2023-07-21T10:01:52.326Z,11032.00
2023-07-21T10:02:52.268Z,10972.00
2023-07-21T10:03:52.290Z,11052.00
2023-07-21T10:04:52.230Z,11152.00
2023-07-21T10:05:52.215Z,11200.00
2023-07-21T10:06:52.200Z,11220.00
2023-07-21T10:07:52.186Z,11392.00
2023-07-21T10:08:52.163Z,11472.00
2023-07-21T10:09:52.151Z,11896.00
2023-07-21T10:10:52.145Z,12200.00
2023-07-21T10:11:52.130Z,12416.00
2023-07-21T10:12:52.138Z,12468.00
2023-07-21T10:13:52.110Z,12352.00
2023-07-21T10:14:52.091Z,12480.00
2023-07-21T10:15:52.118Z,12500.00
2023-07-21T10:16:52.135Z,12572.00
2023-07-21T10:17:52.084Z,12588.00
2023-07-21T10:18:52.034Z,12532.00
2023-07-21T10:19:52.014Z,12392.00
2023-07-21T10:20:51.998Z,12088.00
2023-07-21T10:21:52.043Z,11656.00
2023-07-21T10:22:52.249Z,11172.00
2023-07-21T10:23:51.992Z,10828.00
2023-07-21T10:24:52.115Z,10548.00
2023-07-21T10:25:51.966Z,10324.00
2023-07-21T10:26:51.937Z,10216.00
2023-07-21T10:27:51.928Z,10256.00
2023-07-21T10:28:51.905Z,10268.00
2023-07-21T10:29:51.895Z,10312.00
2023-07-21T10:30:51.935Z,10680.00
2023-07-21T10:31:51.867Z,11180.00
2023-07-21T10:32:51.882Z,11312.00
2023-07-21T10:33:51.827Z,11316.00
2023-07-21T10:34:51.824Z,11584.00
2023-07-21T10:35:51.819Z,11884.00
2023-07-21T10:36:51.791Z,12080.00
2023-07-21T10:37:51.798Z,12312.00
2023-07-21T10:38:51.761Z,12516.00
2023-07-21T10:39:51.787Z,12712.00
2023-07-21T10:40:51.730Z,12824.00
2023-07-21T10:41:51.741Z,12428.00
2023-07-21T10:42:51.823Z,12308.00
2023-07-21T10:43:51.702Z,12156.00
2023-07-21T10:44:51.708Z,12064.00
2023-07-21T10:45:51.731Z,12092.00
2023-07-21T10:46:51.914Z,12084.00
2023-07-21T10:47:51.871Z,12192.00
2023-07-21T10:48:51.639Z,12104.00
2023-07-21T10:49:51.621Z,11900.00
2023-07-21T10:50:51.630Z,11584.00
2023-07-21T10:51:51.597Z,11396.00
2023-07-21T10:52:51.581Z,11304.00
2023-07-21T10:53:51.600Z,11332.00
2023-07-21T10:54:51.568Z,11420.00
2023-07-21T10:55:51.550Z,11468.00
2023-07-21T10:56:51.557Z,11420.00
2023-07-21T10:57:51.533Z,11316.00
2023-07-21T10:58:51.495Z,11320.00
2023-07-21T10:59:51.522Z,11596.00
2023-07-21T11:00:51.492Z,12008.00
2023-07-21T11:01:51.536Z,12288.00
2023-07-21T11:02:51.511Z,12296.00
2023-07-21T11:03:51.533Z,12260.00
2023-07-21T11:04:51.493Z,12048.00
2023-07-21T11:05:51.435Z,11664.00
2023-07-21T11:06:51.405Z,11140.00
2023-07-21T11:07:51.393Z,10708.00
2023-07-21T11:08:51.455Z,10400.00
2023-07-21T11:09:51.371Z,10016.00
2023-07-21T11:10:51.372Z,9524.00
2023-07-21T11:11:51.335Z,8964.00
2023-07-21T11:12:51.339Z,8488.00
2023-07-21T11:13:51.314Z,8084.00
2023-07-21T11:14:51.329Z,7656.00
2023-07-21T11:15:51.307Z,7172.00
2023-07-21T11:16:51.392Z,6692.00
2023-07-21T11:17:51.270Z,6288.00
2023-07-21T11:18:51.267Z,5868.00
2023-07-21T11:19:51.245Z,5472.00
2023-07-21T11:20:51.256Z,5276.00
2023-07-21T11:21:52.235Z,5228.00
2023-07-21T11:22:51.232Z,5268.00
2023-07-21T11:23:51.183Z,5328.00
2023-07-21T11:24:51.243Z,5376.00
2023-07-21T11:25:51.171Z,5596.00
2023-07-21T11:26:51.151Z,5928.00
2023-07-21T11:27:51.161Z,6300.00
2023-07-21T11:28:51.158Z,6736.00
2023-07-21T11:29:51.125Z,7188.00
2023-07-21T11:30:51.231Z,7504.00
2023-07-21T11:31:51.126Z,7592.00
2023-07-21T11:32:51.198Z,7628.00
2023-07-21T11:33:51.093Z,7828.00
2023-07-21T11:34:51.049Z,8008.00
2023-07-21T11:35:51.045Z,8016.00
2023-07-21T11:36:51.104Z,7912.00
2023-07-21T11:37:50.998Z,7648.00
2023-07-21T11:38:50.983Z,7436.00
2023-07-21T11:39:50.988Z,7388.00
2023-07-21T11:40:50.950Z,7552.00
2023-07-21T11:41:50.941Z,7640.00
2023-07-21T11:42:50.957Z,7504.00
2023-07-21T11:43:50.951Z,7336.00
2023-07-21T11:44:50.918Z,7212.00
2023-07-21T11:45:50.958Z,7184.00
2023-07-21T11:46:50.879Z,7152.00
2023-07-21T11:47:50.907Z,6684.00
2023-07-21T11:48:50.858Z,6144.00
2023-07-21T11:49:50.865Z,6012.00
2023-07-21T11:50:50.846Z,6148.00
2023-07-21T11:51:50.880Z,6260.00
2023-07-21T11:52:50.808Z,6228.00
2023-07-21T11:53:50.804Z,6044.00
2023-07-21T11:54:50.798Z,5800.00
2023-07-21T11:55:50.783Z,5608.00
2023-07-21T11:56:50.774Z,5468.00
2023-07-21T11:57:50.754Z,5376.00
2023-07-21T11:58:50.740Z,5252.00
2023-07-21T11:59:50.716Z,5108.00
2023-07-21T12:00:50.841Z,4968.00
2023-07-21T12:01:50.688Z,4784.00
2023-07-21T12:02:50.710Z,4628.00
2023-07-21T12:03:50.782Z,4492.00
2023-07-21T12:04:50.687Z,4312.00
2023-07-21T12:05:50.659Z,4068.00
2023-07-21T12:06:50.640Z,3852.00
2023-07-21T12:07:50.625Z,3720.00
2023-07-21T12:08:50.628Z,3656.00
2023-07-21T12:09:50.579Z,3668.00
2023-07-21T12:10:50.597Z,3700.00
2023-07-21T12:11:50.561Z,3648.00
2023-07-21T12:12:50.543Z,3536.00
2023-07-21T12:13:50.528Z,3376.00
2023-07-21T12:14:50.566Z,3232.00
2023-07-21T12:15:50.564Z,3140.00
2023-07-21T12:16:50.669Z,3088.00
2023-07-21T12:17:50.557Z,3060.00
2023-07-21T12:18:50.484Z,3040.00
2023-07-21T12:19:50.490Z,3048.00